Time;durP1;ratioP1;P1;durP2;ratioP2;P2;SDS_P1;SDS_P2;PMS_P1;PMS_P2;Temp;Humidity;BMP_temperature;BMP_pressure;BME280_temperature;BME280_humidity;BME280_pressure;Samples;Min_cycle;Max_cycle;Signal;HPM_P1;HPM_P2
2023/05/21 00:00:41;;;;;;;12.63;10.10;;;14.30;99.90;;;;;;4956398;29;20211;-79
2023/05/21 00:03:12;;;;;;;11.60;10.37;;;14.30;99.90;;;;;;4969979;28;20258;-79
2023/05/21 00:05:41;;;;;;;12.43;11.10;;;14.20;99.90;;;;;;4962316;28;20284;-78
2023/05/21 00:08:09;;;;;;;11.50;10.30;;;14.20;99.90;;;;;;4956641;29;20291;-77
2023/05/21 00:10:37;;;;;;;12.27;11.07;;;14.20;99.90;;;;;;4956357;29;20242;-77
2023/05/21 00:13:05;;;;;;;14.07;10.73;;;14.10;99.90;;;;;;4969865;28;20277;-78
2023/05/21 00:15:34;;;;;;;14.80;10.93;;;14.10;99.90;;;;;;4975230;28;20218;-79
2023/05/21 00:18:04;;;;;;;11.83;10.63;;;14.00;99.90;;;;;;4975071;28;20727;-76
2023/05/21 00:20:32;;;;;;;12.73;10.00;;;14.00;99.90;;;;;;4964031;28;20212;-77
2023/05/21 00:23:02;;;;;;;12.40;11.10;;;14.00;99.90;;;;;;4955454;29;20263;-77
2023/05/21 00:25:31;;;;;;;13.50;10.57;;;14.00;99.90;;;;;;4956174;29;20277;-77
2023/05/21 00:27:59;;;;;;;12.40;11.20;;;14.00;99.90;;;;;;4955986;29;20270;-77
2023/05/21 00:30:27;;;;;;;11.10;9.77;;;14.00;99.90;;;;;;4955473;28;20215;-77
2023/05/21 00:32:57;;;;;;;12.10;10.80;;;14.00;99.90;;;;;;4955586;29;20243;-77
2023/05/21 00:35:27;;;;;;;11.00;9.90;;;13.90;99.90;;;;;;4955806;29;20207;-78
2023/05/21 00:37:56;;;;;;;12.07;10.70;;;13.90;99.90;;;;;;4970249;28;20214;-77
2023/05/21 00:40:24;;;;;;;10.93;9.83;;;13.90;99.90;;;;;;4975057;28;20724;-79
2023/05/21 00:42:55;;;;;;;11.40;10.20;;;13.90;99.90;;;;;;4974654;28;20230;-77
2023/05/21 00:45:24;;;;;;;12.53;9.57;;;13.90;99.90;;;;;;4971257;28;20668;-78
2023/05/21 00:47:54;;;;;;;12.30;9.73;;;13.90;99.90;;;;;;4955412;28;20204;-77
2023/05/21 00:50:23;;;;;;;11.87;9.67;;;13.90;99.90;;;;;;4955918;29;20212;-79
2023/05/21 00:52:53;;;;;;;11.83;9.50;;;13.90;99.90;;;;;;4955149;29;20207;-78
2023/05/21 00:55:21;;;;;;;11.73;10.23;;;13.80;99.90;;;;;;4955763;29;20302;-78
2023/05/21 00:57:49;;;;;;;10.83;9.77;;;13.80;99.90;;;;;;4955151;28;20215;-77
2023/05/21 01:00:17;;;;;;;12.40;9.50;;;13.80;99.90;;;;;;4955513;29;20586;-77
2023/05/21 01:02:46;;;;;;;11.50;9.73;;;13.80;99.90;;;;;;4954499;29;20242;-78
2023/05/21 01:05:15;;;;;;;11.07;9.87;;;13.80;99.90;;;;;;4954697;28;20338;-78
2023/05/21 01:07:43;;;;;;;12.03;10.03;;;13.80;99.90;;;;;;4955423;29;20219;-76
2023/05/21 01:10:13;;;;;;;12.20;9.40;;;13.90;99.90;;;;;;4955179;29;20696;-77
2023/05/21 01:12:44;;;;;;;10.83;9.67;;;13.80;99.90;;;;;;4954589;28;20290;-77
2023/05/21 01:15:12;;;;;;;11.23;9.50;;;13.80;99.90;;;;;;4955393;29;20220;-77
2023/05/21 01:17:41;;;;;;;10.13;9.07;;;13.80;99.90;;;;;;4955074;29;20220;-76
2023/05/21 01:20:10;;;;;;;11.50;9.57;;;13.80;99.90;;;;;;4955027;29;20589;-77
2023/05/21 01:22:43;;;;;;;12.63;9.43;;;13.70;99.90;;;;;;4954277;28;20227;-78
2023/05/21 01:25:13;;;;;;;11.00;9.77;;;13.80;99.90;;;;;;4954462;28;20279;-78
2023/05/21 01:27:42;;;;;;;12.10;9.07;;;13.80;99.90;;;;;;4954972;29;20216;-78
2023/05/21 01:30:11;;;;;;;10.43;9.30;;;13.90;99.90;;;;;;4954781;29;20572;-76
2023/05/21 01:32:47;;;;;;;10.43;9.33;;;13.80;99.90;;;;;;4954596;28;20207;-77
2023/05/21 01:35:21;;;;;;;11.77;9.90;;;13.80;99.90;;;;;;4959333;28;20211;-77
2023/05/21 01:37:55;;;;;;;10.50;9.40;;;13.80;99.90;;;;;;4974366;28;20242;-77
2023/05/21 01:40:31;;;;;;;11.00;9.33;;;13.80;99.90;;;;;;4974418;28;20314;-76
2023/05/21 01:43:00;;;;;;;11.17;9.93;;;13.80;99.90;;;;;;4956127;28;20234;-77
2023/05/21 01:45:32;;;;;;;11.77;9.27;;;13.80;99.90;;;;;;4954258;29;20274;-76
2023/05/21 01:48:00;;;;;;;10.17;9.17;;;13.80;99.90;;;;;;4954696;29;20196;-78
2023/05/21 01:50:30;;;;;;;11.10;9.60;;;13.70;99.90;;;;;;4953919;28;20271;-77
2023/05/21 01:52:59;;;;;;;10.03;9.00;;;13.60;99.90;;;;;;4953996;29;20231;-77
2023/05/21 01:55:29;;;;;;;10.10;9.07;;;13.60;99.90;;;;;;4954609;29;20295;-77
2023/05/21 01:57:58;;;;;;;11.27;9.80;;;13.60;99.90;;;;;;4954459;29;20208;-78
2023/05/21 02:00:31;;;;;;;12.07;9.50;;;13.50;99.90;;;;;;4954204;29;20208;-77
2023/05/21 02:02:59;;;;;;;10.67;9.57;;;13.50;99.90;;;;;;4953805;29;20238;-78
2023/05/21 02:05:27;;;;;;;13.87;9.80;;;13.40;99.90;;;;;;4954227;29;20264;-77
2023/05/21 02:07:55;;;;;;;13.27;9.63;;;13.40;99.90;;;;;;4954009;29;20745;-77
2023/05/21 02:10:24;;;;;;;11.07;9.83;;;13.30;99.90;;;;;;4954458;29;20677;-79
2023/05/21 02:12:53;;;;;;;10.63;8.80;;;13.30;99.90;;;;;;4954322;29;20223;-78
2023/05/21 02:15:23;;;;;;;12.20;9.67;;;13.40;99.90;;;;;;4954329;29;20411;-78
2023/05/21 02:17:51;;;;;;;10.60;9.40;;;13.40;99.90;;;;;;4955624;29;20602;-79
2023/05/21 02:20:21;;;;;;;10.37;9.23;;;13.50;99.90;;;;;;4954748;29;20298;-79
2023/05/21 02:22:49;;;;;;;10.43;9.33;;;13.40;99.90;;;;;;4954138;29;20251;-77
2023/05/21 02:25:19;;;;;;;10.57;9.23;;;13.40;99.90;;;;;;4954658;28;20223;-76
2023/05/21 02:27:51;;;;;;;10.43;8.73;;;13.40;99.90;;;;;;4955591;29;20305;-77
2023/05/21 02:30:21;;;;;;;11.43;8.73;;;13.30;99.90;;;;;;4958337;29;20262;-77
2023/05/21 02:32:49;;;;;;;9.80;8.80;;;13.30;99.90;;;;;;4956675;29;20220;-77
2023/05/21 02:35:17;;;;;;;10.00;8.93;;;13.20;99.90;;;;;;4970803;28;20573;-78
2023/05/21 02:37:45;;;;;;;13.90;8.97;;;13.20;99.90;;;;;;4977313;28;20265;-78
2023/05/21 02:40:14;;;;;;;10.47;9.37;;;13.10;99.90;;;;;;4978195;28;20234;-78
2023/05/21 02:42:42;;;;;;;11.30;8.73;;;13.10;99.90;;;;;;4977243;28;20225;-78
2023/05/21 02:45:11;;;;;;;11.00;9.10;;;13.10;99.90;;;;;;4958084;28;20235;-78
2023/05/21 02:47:41;;;;;;;10.23;8.30;;;13.00;99.90;;;;;;4958248;29;20302;-77
2023/05/21 02:50:09;;;;;;;11.13;8.57;;;13.00;99.90;;;;;;4957875;29;20239;-77
2023/05/21 02:52:37;;;;;;;9.50;8.50;;;13.00;99.90;;;;;;4956909;28;20215;-78
2023/05/21 02:55:06;;;;;;;9.90;8.60;;;13.00;99.90;;;;;;4957685;29;20227;-77
2023/05/21 02:57:35;;;;;;;9.93;8.33;;;12.90;99.90;;;;;;4957369;29;20218;-77
2023/05/21 03:00:04;;;;;;;9.37;7.70;;;12.90;99.90;;;;;;4957556;29;20579;-77
2023/05/21 03:02:33;;;;;;;9.77;7.80;;;13.00;99.90;;;;;;4956676;28;20247;-76
2023/05/21 03:05:04;;;;;;;9.63;7.93;;;13.00;99.90;;;;;;4957449;29;20271;-78
2023/05/21 03:07:32;;;;;;;9.67;7.63;;;13.00;99.90;;;;;;4957475;29;20199;-79
2023/05/21 03:10:00;;;;;;;9.20;7.60;;;13.00;99.90;;;;;;4957293;29;20242;-78
2023/05/21 03:12:28;;;;;;;8.57;7.43;;;13.00;99.90;;;;;;4956826;29;20674;-77
2023/05/21 03:14:56;;;;;;;8.27;7.37;;;13.00;99.90;;;;;;4957249;29;20251;-78
2023/05/21 03:17:24;;;;;;;9.30;8.00;;;13.00;99.90;;;;;;4957205;29;20215;-78
2023/05/21 03:19:53;;;;;;;9.57;7.90;;;12.90;99.90;;;;;;4957020;29;20669;-77
2023/05/21 03:22:22;;;;;;;8.77;7.53;;;12.90;99.90;;;;;;4956876;29;20532;-78
2023/05/21 03:24:52;;;;;;;9.03;8.00;;;12.80;99.90;;;;;;4957061;29;20270;-76
2023/05/21 03:27:20;;;;;;;9.37;8.20;;;12.80;99.90;;;;;;4956685;29;20696;-77
2023/05/21 03:29:48;;;;;;;8.90;7.93;;;12.70;99.90;;;;;;4956342;28;20650;-78
2023/05/21 03:32:17;;;;;;;8.87;7.73;;;12.70;99.90;;;;;;4959461;28;20231;-78
2023/05/21 03:34:45;;;;;;;8.90;7.80;;;12.60;99.90;;;;;;4976153;28;20206;-79
2023/05/21 03:37:13;;;;;;;8.73;7.83;;;12.60;99.90;;;;;;4968450;28;20211;-78
2023/05/21 03:39:42;;;;;;;8.93;7.40;;;12.50;99.90;;;;;;4956787;29;20236;-78
2023/05/21 03:42:12;;;;;;;9.07;7.77;;;12.50;99.90;;;;;;4956475;29;20302;-77
2023/05/21 03:44:41;;;;;;;9.30;7.70;;;12.60;99.90;;;;;;4956947;29;20318;-76
2023/05/21 03:47:09;;;;;;;11.97;7.50;;;12.70;99.90;;;;;;4956416;28;20208;-78
2023/05/21 03:49:37;;;;;;;8.67;7.17;;;12.70;99.90;;;;;;4956616;29;20661;-79
2023/05/21 03:52:05;;;;;;;8.57;7.33;;;12.90;99.90;;;;;;4956339;29;20239;-78
2023/05/21 03:54:33;;;;;;;7.83;6.90;;;12.90;99.90;;;;;;4956610;28;20554;-79
2023/05/21 03:57:02;;;;;;;9.10;6.87;;;12.90;99.90;;;;;;4956702;29;20251;-80
2023/05/21 03:59:30;;;;;;;8.07;7.27;;;13.00;99.90;;;;;;4956662;29;20207;-80
2023/05/21 04:01:58;;;;;;;9.43;6.40;;;13.00;99.90;;;;;;4955472;28;20279;-76
2023/05/21 04:04:28;;;;;;;9.30;6.63;;;13.10;99.90;;;;;;4956217;29;20331;-77
2023/05/21 04:06:56;;;;;;;9.30;5.97;;;13.20;99.90;;;;;;4956322;29;20215;-78
2023/05/21 04:09:24;;;;;;;7.30;6.33;;;13.20;99.90;;;;;;4955981;29;20303;-78
2023/05/21 04:11:52;;;;;;;9.00;6.63;;;13.20;99.90;;;;;;4955170;28;20662;-78
2023/05/21 04:14:22;;;;;;;8.87;7.10;;;13.20;99.90;;;;;;4956160;29;20295;-78
2023/05/21 04:16:50;;;;;;;9.63;6.77;;;13.20;99.90;;;;;;4955941;29;20215;-76
2023/05/21 04:19:18;;;;;;;7.47;6.37;;;13.20;99.90;;;;;;4955509;28;20667;-78
2023/05/21 04:21:47;;;;;;;7.60;6.57;;;13.20;99.90;;;;;;4956233;29;20591;-77
2023/05/21 04:24:15;;;;;;;8.13;6.90;;;13.20;99.90;;;;;;4955863;29;20231;-78
2023/05/21 04:26:43;;;;;;;7.80;6.77;;;13.20;99.90;;;;;;4956371;29;20218;-78
2023/05/21 04:29:11;;;;;;;9.17;6.70;;;13.20;99.90;;;;;;4956331;28;20211;-78
2023/05/21 04:31:40;;;;;;;8.40;7.20;;;13.20;99.90;;;;;;4965147;28;20214;-77
2023/05/21 04:34:09;;;;;;;7.67;6.87;;;13.20;99.90;;;;;;4956473;28;20688;-78
2023/05/21 04:36:37;;;;;;;8.30;6.90;;;13.30;99.90;;;;;;4956441;29;20686;-79
2023/05/21 04:39:06;;;;;;;9.30;7.17;;;13.20;99.90;;;;;;4956266;28;20219;-78
2023/05/21 04:41:35;;;;;;;8.67;7.27;;;13.30;99.90;;;;;;4956130;28;20215;-77
2023/05/21 04:44:03;;;;;;;9.73;7.17;;;13.30;99.90;;;;;;4956242;29;20215;-78
2023/05/21 04:46:31;;;;;;;7.80;7.00;;;13.30;99.90;;;;;;4955568;29;20255;-79
2023/05/21 04:49:02;;;;;;;8.93;7.53;;;13.30;99.90;;;;;;4955439;29;20230;-78
2023/05/21 04:51:31;;;;;;;8.03;7.23;;;13.30;99.90;;;;;;4954806;28;20224;-76
2023/05/21 04:53:59;;;;;;;9.43;7.10;;;13.40;99.90;;;;;;4955240;29;20211;-76
2023/05/21 04:56:27;;;;;;;9.50;7.53;;;13.40;99.90;;;;;;4955439;29;20239;-77
2023/05/21 04:58:57;;;;;;;9.07;7.50;;;13.50;99.90;;;;;;4954479;28;20662;-77
2023/05/21 05:01:25;;;;;;;10.80;7.00;;;13.50;99.90;;;;;;4955109;28;20294;-76
2023/05/21 05:03:54;;;;;;;10.00;7.27;;;13.50;99.90;;;;;;4954915;29;20211;-77
2023/05/21 05:06:24;;;;;;;8.10;7.30;;;13.60;99.90;;;;;;4955007;29;20259;-78
2023/05/21 05:08:53;;;;;;;8.73;7.50;;;13.70;99.90;;;;;;4955024;28;20267;-77
2023/05/21 05:11:21;;;;;;;7.60;6.80;;;13.80;99.90;;;;;;4955084;29;20263;-78
2023/05/21 05:13:49;;;;;;;9.83;7.43;;;13.90;99.90;;;;;;4954629;29;20302;-77
2023/05/21 05:16:23;;;;;;;8.10;7.30;;;13.90;99.90;;;;;;4955194;29;20286;-77
2023/05/21 05:18:52;;;;;;;9.27;6.93;;;13.90;99.90;;;;;;4954869;29;20749;-77
2023/05/21 05:21:23;;;;;;;8.27;7.17;;;13.90;99.90;;;;;;4955085;29;20212;-79
2023/05/21 05:23:51;;;;;;;9.10;7.23;;;14.00;99.90;;;;;;4954361;29;20211;-79
2023/05/21 05:26:20;;;;;;;8.70;7.40;;;14.00;99.90;;;;;;4954887;29;20227;-78
2023/05/21 05:28:48;;;;;;;8.83;7.00;;;14.10;99.90;;;;;;4954509;28;20219;-79
2023/05/21 05:31:16;;;;;;;8.17;7.07;;;14.10;99.90;;;;;;4972225;28;20230;-77
2023/05/21 05:33:44;;;;;;;7.67;6.87;;;14.20;99.90;;;;;;4973777;28;20269;-78
2023/05/21 05:36:13;;;;;;;9.00;7.50;;;14.30;99.90;;;;;;4973948;28;20202;-78
2023/05/21 05:38:42;;;;;;;8.00;7.20;;;14.40;99.90;;;;;;4956415;28;20681;-79
2023/05/21 05:41:10;;;;;;;8.20;7.10;;;14.40;99.90;;;;;;4954811;29;20669;-79
2023/05/21 05:43:38;;;;;;;8.13;7.33;;;14.50;99.90;;;;;;4954271;29;20298;-77
2023/05/21 05:46:06;;;;;;;9.23;7.20;;;14.50;99.90;;;;;;4954416;29;20315;-79
2023/05/21 05:48:35;;;;;;;8.70;7.17;;;14.60;99.90;;;;;;4954266;28;20723;-78
2023/05/21 05:51:03;;;;;;;8.47;7.40;;;14.60;99.90;;;;;;4954789;29;20262;-77
2023/05/21 05:53:31;;;;;;;8.60;7.70;;;14.60;99.90;;;;;;4953896;29;20279;-78
2023/05/21 05:56:01;;;;;;;8.53;6.90;;;14.70;99.90;;;;;;4953970;28;20694;-79
2023/05/21 05:58:30;;;;;;;7.93;7.00;;;14.80;99.90;;;;;;4954449;29;20234;-79
2023/05/21 06:00:58;;;;;;;9.37;7.60;;;15.00;99.90;;;;;;4954345;29;20270;-77
2023/05/21 06:03:27;;;;;;;8.97;7.50;;;15.00;99.90;;;;;;4953791;28;20208;-79
2023/05/21 06:05:55;;;;;;;8.03;7.23;;;15.10;99.90;;;;;;4954185;29;20755;-77
2023/05/21 06:08:24;;;;;;;10.23;8.03;;;15.20;99.90;;;;;;4954603;29;20207;-78
2023/05/21 06:10:52;;;;;;;7.90;7.10;;;15.20;99.90;;;;;;4953873;28;20584;-79
2023/05/21 06:13:21;;;;;;;8.53;7.10;;;15.40;99.90;;;;;;4953797;28;20208;-79
2023/05/21 06:15:50;;;;;;;9.47;7.33;;;15.50;99.90;;;;;;4954058;29;20216;-78
2023/05/21 06:18:18;;;;;;;7.87;7.07;;;15.70;99.90;;;;;;4954209;29;20299;-79
2023/05/21 06:20:46;;;;;;;8.33;7.43;;;15.80;99.90;;;;;;4953858;28;20211;-79
2023/05/21 06:23:14;;;;;;;11.17;7.50;;;15.80;99.90;;;;;;4953802;29;20573;-78
2023/05/21 06:25:43;;;;;;;8.47;7.07;;;16.00;99.90;;;;;;4954213;29;20227;-77
2023/05/21 06:28:11;;;;;;;8.00;7.10;;;16.00;99.90;;;;;;4957718;28;20203;-77
2023/05/21 06:30:40;;;;;;;8.03;6.77;;;16.00;99.90;;;;;;4972325;28;20211;-78
2023/05/21 06:33:08;;;;;;;8.57;7.30;;;16.10;99.90;;;;;;4953505;29;20247;-79
2023/05/21 06:35:38;;;;;;;9.73;7.90;;;16.00;99.90;;;;;;4954210;29;20207;-78
2023/05/21 06:38:06;;;;;;;8.07;7.27;;;16.00;99.90;;;;;;4954466;29;20215;-78
2023/05/21 06:40:35;;;;;;;9.33;7.50;;;16.00;99.90;;;;;;4953382;28;20612;-79
2023/05/21 06:43:04;;;;;;;9.87;7.53;;;16.00;99.90;;;;;;4953802;29;20661;-78
2023/05/21 06:45:32;;;;;;;9.13;7.87;;;16.10;99.90;;;;;;4953578;29;20737;-78
2023/05/21 06:48:01;;;;;;;8.90;7.73;;;16.10;99.90;;;;;;4954025;28;20212;-78
2023/05/21 06:50:30;;;;;;;9.53;7.87;;;16.10;99.90;;;;;;4954335;29;20238;-76
2023/05/21 06:52:58;;;;;;;8.17;7.37;;;16.30;99.90;;;;;;4953633;29;20266;-78
2023/05/21 06:55:26;;;;;;;9.10;8.10;;;16.30;99.90;;;;;;4953932;29;20219;-79
2023/05/21 06:57:54;;;;;;;8.33;7.53;;;16.30;99.90;;;;;;4953754;29;20686;-77
2023/05/21 07:00:22;;;;;;;8.23;7.43;;;16.40;99.90;;;;;;4954113;29;20223;-77
2023/05/21 07:02:50;;;;;;;8.83;7.93;;;16.40;99.90;;;;;;4953946;29;20281;-78
2023/05/21 07:05:20;;;;;;;8.47;7.50;;;16.60;99.90;;;;;;4953773;28;20749;-79
2023/05/21 07:07:48;;;;;;;8.70;7.77;;;16.70;99.90;;;;;;4954234;29;20226;-77
2023/05/21 07:10:17;;;;;;;8.90;7.83;;;16.80;99.90;;;;;;4954070;29;20274;-79
2023/05/21 07:12:45;;;;;;;8.60;7.43;;;16.80;99.90;;;;;;4953311;29;20723;-77
2023/05/21 07:15:13;;;;;;;9.13;7.93;;;16.90;99.90;;;;;;4953760;28;20219;-77
2023/05/21 07:17:41;;;;;;;9.70;8.00;;;16.90;99.90;;;;;;4953883;29;20282;-77
2023/05/21 07:20:10;;;;;;;9.50;8.27;;;16.90;99.90;;;;;;4953992;29;20211;-79
2023/05/21 07:22:41;;;;;;;10.83;8.20;;;16.90;99.90;;;;;;4955040;28;20255;-78
2023/05/21 07:25:10;;;;;;;9.00;7.43;;;16.90;99.90;;;;;;4957464;28;20246;-78
2023/05/21 07:27:38;;;;;;;8.63;7.57;;;17.10;99.90;;;;;;4968231;28;20707;-78
2023/05/21 07:30:09;;;;;;;9.47;8.00;;;17.30;99.90;;;;;;4976358;28;20218;-77
2023/05/21 07:32:37;;;;;;;9.10;7.50;;;17.50;99.90;;;;;;4974946;28;20302;-79
2023/05/21 07:35:06;;;;;;;8.60;7.70;;;17.70;99.90;;;;;;4957081;29;20443;-78
2023/05/21 07:37:34;;;;;;;8.33;7.50;;;17.90;99.90;;;;;;4956812;29;20208;-78
2023/05/21 07:40:05;;;;;;;8.73;7.83;;;18.00;99.90;;;;;;4956851;28;20216;-79
2023/05/21 07:42:33;;;;;;;8.77;7.83;;;18.30;99.90;;;;;;4956318;29;20764;-78
2023/05/21 07:45:02;;;;;;;9.67;7.63;;;18.50;99.90;;;;;;4956931;29;20303;-77
2023/05/21 07:47:30;;;;;;;8.53;7.30;;;18.70;99.90;;;;;;4957141;29;20303;-77
2023/05/21 07:49:58;;;;;;;9.17;7.73;;;18.90;99.90;;;;;;4956165;28;20658;-81
2023/05/21 07:52:26;;;;;;;8.33;7.13;;;18.90;99.90;;;;;;4956527;29;20700;-79
2023/05/21 07:54:54;;;;;;;8.10;7.30;;;19.00;99.90;;;;;;4956870;29;20216;-79
2023/05/21 07:57:24;;;;;;;8.07;6.13;;;19.30;99.90;;;;;;4956849;28;20208;-76
2023/05/21 07:59:52;;;;;;;8.93;6.80;;;19.50;99.90;;;;;;4956712;29;20274;-77
2023/05/21 08:02:20;;;;;;;10.63;6.63;;;19.70;99.90;;;;;;4955953;29;20282;-77
2023/05/21 08:04:48;;;;;;;8.93;6.13;;;20.00;99.90;;;;;;4956623;28;20552;-76
2023/05/21 08:07:18;;;;;;;7.63;6.00;;;20.30;99.90;;;;;;4956473;29;20657;-78
2023/05/21 08:09:46;;;;;;;6.77;5.93;;;20.90;99.90;;;;;;4956310;29;20681;-78
2023/05/21 08:12:15;;;;;;;6.80;5.83;;;21.60;99.90;;;;;;4956197;29;20207;-78
2023/05/21 08:14:44;;;;;;;7.07;5.87;;;22.30;99.90;;;;;;4956112;28;20267;-77
2023/05/21 08:17:12;;;;;;;6.10;5.50;;;23.10;99.90;;;;;;4956423;29;20214;-78
2023/05/21 08:19:40;;;;;;;8.73;5.90;;;23.90;96.70;;;;;;4956211;29;20673;-77
2023/05/21 08:22:08;;;;;;;9.70;5.93;;;23.90;94.30;;;;;;4955679;28;20227;-78
2023/05/21 08:24:37;;;;;;;9.13;5.43;;;24.10;93.00;;;;;;4956236;29;20299;-79
2023/05/21 08:27:06;;;;;;;9.23;5.97;;;24.40;91.70;;;;;;4974041;28;20230;-78
2023/05/21 08:29:34;;;;;;;7.43;6.13;;;24.20;91.70;;;;;;4975146;28;20206;-77
2023/05/21 08:32:04;;;;;;;6.50;5.77;;;24.20;91.00;;;;;;4975055;28;20218;-77
2023/05/21 08:34:32;;;;;;;6.20;5.60;;;24.40;91.80;;;;;;4975028;28;20704;-79
2023/05/21 08:37:00;;;;;;;6.77;5.80;;;24.70;90.30;;;;;;4975389;28;20242;-78
2023/05/21 08:39:28;;;;;;;7.93;6.07;;;25.10;90.00;;;;;;4974945;28;20206;-77
2023/05/21 08:42:04;;;;;;;7.70;6.17;;;25.30;88.60;;;;;;4964162;28;20219;-79
2023/05/21 08:44:36;;;;;;;9.20;5.80;;;25.50;89.00;;;;;;4955882;29;20262;-77
2023/05/21 08:47:09;;;;;;;6.33;5.60;;;25.10;88.60;;;;;;4955696;29;20231;-78
2023/05/21 08:49:38;;;;;;;7.30;5.70;;;26.10;85.70;;;;;;4955899;29;20242;-77
2023/05/21 08:52:06;;;;;;;7.65;5.20;;;27.00;81.20;;;;;;4955058;28;20685;-78
2023/05/21 08:54:38;;;;;;;6.57;5.40;;;27.60;76.20;;;;;;4955581;29;20204;-77
2023/05/21 08:57:07;;;;;;;7.20;5.10;;;28.30;73.20;;;;;;4955298;29;20674;-76
2023/05/21 08:59:38;;;;;;;6.22;5.15;;;28.60;65.50;;;;;;4955085;28;20670;-78
2023/05/21 09:02:08;;;;;;;8.23;4.72;;;28.00;63.40;;;;;;4954767;29;20239;-76
2023/05/21 09:04:37;;;;;;;5.35;4.82;;;28.50;62.90;;;;;;4956226;29;20215;-79
2023/05/21 09:07:06;;;;;;;6.70;5.28;;;28.50;59.20;;;;;;4955622;29;20729;-75
2023/05/21 09:09:41;;;;;;;6.80;5.10;;;29.10;58.30;;;;;;4955598;28;20211;-79
2023/05/21 09:12:10;;;;;;;7.57;5.00;;;29.70;55.80;;;;;;4955106;29;20207;-79
2023/05/21 09:14:39;;;;;;;7.25;4.88;;;29.30;54.30;;;;;;4954966;29;20270;-78
2023/05/21 09:17:08;;;;;;;6.30;5.00;;;28.90;54.50;;;;;;4955369;29;20211;-79
2023/05/21 09:19:36;;;;;;;6.25;5.18;;;29.00;53.40;;;;;;4955123;28;20219;-78
2023/05/21 09:22:06;;;;;;;7.25;5.40;;;28.20;54.80;;;;;;4954836;29;20262;-78
2023/05/21 09:24:34;;;;;;;7.20;5.35;;;28.40;56.30;;;;;;4963547;28;20634;-79
2023/05/21 09:27:06;;;;;;;5.72;5.13;;;27.60;56.50;;;;;;4973017;28;20586;-78
2023/05/21 09:29:35;;;;;;;7.68;5.03;;;27.40;57.70;;;;;;4954770;29;20303;-79
2023/05/21 09:32:08;;;;;;;8.68;5.40;;;27.40;57.60;;;;;;4954253;29;20294;-79
2023/05/21 09:34:36;;;;;;;6.47;5.32;;;28.10;58.70;;;;;;4955100;29;20203;-78
2023/05/21 09:37:06;;;;;;;6.63;5.45;;;28.10;57.70;;;;;;4955023;29;20255;-79
2023/05/21 09:39:53;;;;;;;6.18;5.57;;;28.70;56.30;;;;;;4954602;29;20885;-77
2023/05/21 09:42:21;;;;;;;8.48;5.80;;;28.30;56.70;;;;;;4954582;29;20278;-76
2023/05/21 09:44:50;;;;;;;7.57;5.97;;;27.70;58.30;;;;;;4953895;28;20215;-77
2023/05/21 09:47:22;;;;;;;9.73;6.35;;;27.50;60.20;;;;;;4954728;29;20235;-77
2023/05/21 09:49:50;;;;;;;7.78;5.63;;;27.60;62.00;;;;;;4954852;29;20230;-77
2023/05/21 09:52:25;;;;;;;7.75;5.70;;;28.70;58.40;;;;;;4954538;29;20211;-79
2023/05/21 09:54:53;;;;;;;7.78;6.00;;;28.80;58.10;;;;;;4954756;29;20200;-78
2023/05/21 09:57:25;;;;;;;6.72;6.00;;;28.20;58.70;;;;;;4954405;29;20203;-80
2023/05/21 09:59:53;;;;;;;7.22;5.75;;;28.30;59.40;;;;;;4954897;29;20216;-78
2023/05/21 10:02:25;;;;;;;6.40;5.50;;;28.70;58.10;;;;;;4954208;28;20235;-77
2023/05/21 10:04:54;;;;;;;7.55;5.55;;;28.60;58.50;;;;;;4957208;29;20275;-77
2023/05/21 10:07:24;;;;;;;8.15;6.20;;;29.00;59.40;;;;;;4957976;29;20285;-77
2023/05/21 10:09:55;;;;;;;6.60;5.65;;;29.30;57.30;;;;;;4957699;28;20271;-76
2023/05/21 10:12:24;;;;;;;7.45;6.13;;;29.30;58.30;;;;;;4962537;29;20216;-78
2023/05/21 10:14:59;;;;;;;8.18;6.03;;;28.70;58.50;;;;;;4961210;29;20215;-76
2023/05/21 10:17:30;;;;;;;7.13;6.13;;;27.40;60.30;;;;;;4961155;28;20250;-78
2023/05/21 10:20:00;;;;;;;6.55;5.93;;;27.30;62.30;;;;;;4980058;28;20214;-78
2023/05/21 10:22:29;;;;;;;7.53;5.82;;;27.20;60.70;;;;;;4973377;28;20243;-77
2023/05/21 10:24:58;;;;;;;6.10;5.50;;;27.80;62.00;;;;;;4973378;28;20215;-78
2023/05/21 10:27:29;;;;;;;6.88;5.30;;;28.40;58.20;;;;;;4954031;28;20301;-77
2023/05/21 10:30:00;;;;;;;8.75;5.00;;;29.00;55.70;;;;;;4954065;29;20218;-76
2023/05/21 10:32:31;;;;;;;5.82;4.90;;;29.70;53.10;;;;;;4953608;29;20270;-77
2023/05/21 10:35:00;;;;;;;5.55;4.90;;;29.60;51.10;;;;;;4953625;28;20219;-77
2023/05/21 10:37:29;;;;;;;6.40;5.20;;;29.10;51.30;;;;;;4953770;29;20211;-77
2023/05/21 10:39:57;;;;;;;5.65;5.13;;;28.80;52.10;;;;;;4954073;29;20258;-77
2023/05/21 10:43:05;;;;;;;7.93;5.20;;;28.40;51.40;;;;;;4953475;28;20215;-77
2023/05/21 10:45:47;;;;;;;7.78;5.80;;;28.20;52.50;;;;;;4934763;29;20258;-77
2023/05/21 10:48:31;;;;;;;7.50;5.55;;;27.90;53.40;;;;;;4954040;29;20219;-77
2023/05/21 10:51:22;;;;;;;7.32;5.60;;;27.60;53.80;;;;;;4937112;29;20567;-78
2023/05/21 10:54:16;;;;;;;6.88;5.80;;;27.60;55.30;;;;;;4951232;29;20215;-78
2023/05/21 10:56:50;;;;;;;6.50;5.90;;;27.40;56.80;;;;;;4953784;28;20216;-77
2023/05/21 10:59:32;;;;;;;7.25;5.40;;;27.40;55.70;;;;;;4958790;29;20673;-75
2023/05/21 11:02:01;;;;;;;5.90;5.40;;;27.60;53.70;;;;;;4956888;28;20270;-77
2023/05/21 11:04:33;;;;;;;8.23;5.40;;;28.50;54.20;;;;;;4958130;29;20224;-78
2023/05/21 11:07:02;;;;;;;6.68;5.10;;;28.80;53.90;;;;;;4957703;29;20286;-76
2023/05/21 11:09:30;;;;;;;6.95;5.43;;;28.80;54.20;;;;;;4957232;29;20237;-78
2023/05/21 11:12:00;;;;;;;8.45;5.15;;;28.40;53.90;;;;;;4957136;29;20235;-79
2023/05/21 11:14:34;;;;;;;6.20;4.88;;;28.00;52.10;;;;;;4957447;29;20295;-79
2023/05/21 11:17:03;;;;;;;5.60;5.00;;;27.60;51.90;;;;;;4957151;29;20681;-77
2023/05/21 11:19:37;;;;;;;6.20;5.40;;;27.20;52.50;;;;;;4957225;28;20299;-77
2023/05/21 11:22:20;;;;;;;7.63;5.60;;;26.80;55.30;;;;;;4968641;28;20213;-78
2023/05/21 11:24:49;;;;;;;8.17;5.60;;;26.70;55.60;;;;;;4976744;28;20285;-76
2023/05/21 11:27:33;;;;;;;8.67;5.40;;;27.10;56.40;;;;;;4976644;28;20215;-78
2023/05/21 11:30:05;;;;;;;6.97;5.50;;;27.20;54.50;;;;;;4956925;29;20313;-78
2023/05/21 11:32:38;;;;;;;7.67;5.30;;;27.20;54.80;;;;;;4956889;29;20216;-74
2023/05/21 11:35:08;;;;;;;7.50;5.23;;;26.80;54.70;;;;;;4956689;28;20283;-78
2023/05/21 11:37:40;;;;;;;6.13;5.10;;;27.20;53.40;;;;;;4957318;29;20216;-76
2023/05/21 11:40:26;;;;;;;6.40;5.20;;;27.30;53.40;;;;;;4956872;29;20199;-76
2023/05/21 11:42:56;;;;;;;5.87;5.27;;;27.30;52.90;;;;;;4956704;29;20215;-77
2023/05/21 11:45:29;;;;;;;7.17;5.03;;;27.60;52.80;;;;;;4957324;29;20587;-77
2023/05/21 11:47:57;;;;;;;7.77;5.40;;;28.00;52.50;;;;;;4957922;28;20247;-77
2023/05/21 11:50:29;;;;;;;5.80;5.20;;;28.10;52.50;;;;;;4976269;28;20240;-78
2023/05/21 11:52:59;;;;;;;5.50;4.90;;;28.30;52.50;;;;;;4976140;28;20301;-78
2023/05/21 11:55:27;;;;;;;8.20;5.53;;;28.50;51.90;;;;;;4976605;28;20269;-77
2023/05/21 11:57:56;;;;;;;6.97;5.47;;;28.10;49.50;;;;;;4957125;28;20620;-76
2023/05/21 12:00:24;;;;;;;6.27;4.90;;;27.70;51.90;;;;;;4956526;29;20207;-76
2023/05/21 12:02:54;;;;;;;6.03;5.40;;;28.00;50.00;;;;;;4956135;29;20224;-76
2023/05/21 12:05:23;;;;;;;7.67;5.60;;;27.90;50.30;;;;;;4956504;28;20215;-77
2023/05/21 12:07:55;;;;;;;7.13;5.37;;;27.50;49.50;;;;;;4956588;28;20215;-78
2023/05/21 12:10:23;;;;;;;5.80;5.20;;;27.70;54.70;;;;;;4956521;29;20232;-77
2023/05/21 12:12:51;;;;;;;9.30;5.60;;;27.90;49.80;;;;;;4956155;28;20216;-76
2023/05/21 12:15:25;;;;;;;8.50;5.33;;;27.80;50.50;;;;;;4956627;29;20199;-76
2023/05/21 12:17:55;;;;;;;6.27;5.13;;;27.80;51.60;;;;;;4956593;29;20208;-77
2023/05/21 12:20:26;;;;;;;5.97;5.20;;;28.00;53.50;;;;;;4965715;28;20207;-77
2023/05/21 12:22:57;;;;;;;7.13;5.47;;;28.10;50.90;;;;;;4967748;28;20626;-76
2023/05/21 12:25:26;;;;;;;7.43;5.20;;;28.00;51.60;;;;;;4956302;29;20207;-77
2023/05/21 12:27:56;;;;;;;7.93;5.43;;;27.90;52.00;;;;;;4956023;29;20572;-76
2023/05/21 12:30:26;;;;;;;6.37;5.37;;;28.00;51.60;;;;;;4956097;29;20262;-76
2023/05/21 12:32:57;;;;;;;6.70;5.13;;;27.80;49.50;;;;;;4955450;28;20219;-76
2023/05/21 12:35:25;;;;;;;6.00;4.93;;;27.90;50.50;;;;;;4956177;29;20230;-78
2023/05/21 12:37:54;;;;;;;7.83;5.37;;;28.40;49.20;;;;;;4956022;29;20242;-75
2023/05/21 12:40:35;;;;;;;6.70;5.00;;;28.00;48.40;;;;;;4955454;28;20204;-78
2023/05/21 12:43:03;;;;;;;7.23;5.47;;;27.90;51.00;;;;;;4955645;29;20226;-78
2023/05/21 12:45:32;;;;;;;7.13;5.50;;;27.90;50.60;;;;;;4955883;29;20367;-76
2023/05/21 12:48:01;;;;;;;8.80;5.13;;;27.90;51.00;;;;;;4955606;28;20298;-78
2023/05/21 12:50:30;;;;;;;5.97;5.37;;;28.30;52.20;;;;;;4955399;29;20235;-77
2023/05/21 12:52:58;;;;;;;5.93;5.07;;;28.10;49.30;;;;;;4955068;29;20274;-77
2023/05/21 12:55:29;;;;;;;5.70;5.03;;;28.20;50.70;;;;;;4955798;29;20211;-77